createdAt,value
2023-05-25T00:04:00.729Z,100013.69
2023-05-25T00:14:03.360Z,100011.75
2023-05-25T00:24:06.678Z,99975.91
2023-05-25T00:34:09.373Z,99979.34
2023-05-25T00:44:15.924Z,99982.22
2023-05-25T00:54:19.673Z,99984.38
2023-05-25T01:04:23.868Z,99991.56
2023-05-25T01:14:27.675Z,99996.56
2023-05-25T01:24:41.000Z,100033.78
2023-05-25T01:34:44.396Z,100017.44
2023-05-25T01:44:48.653Z,100050.88
2023-05-25T01:55:01.083Z,100064.88
2023-05-25T02:05:04.227Z,100078.94
2023-05-25T02:15:07.219Z,100080.06
2023-05-25T02:25:10.071Z,100045.03
2023-05-25T02:35:12.693Z,100043.72
2023-05-25T02:45:15.475Z,100092.06
2023-05-25T02:55:18.947Z,100070.38
2023-05-25T03:05:21.821Z,100100.31
2023-05-25T03:15:24.926Z,100103.72
2023-05-25T03:25:27.492Z,100104.16
2023-05-25T03:35:30.976Z,100083.56
2023-05-25T03:45:33.898Z,100106.81
2023-05-25T03:55:36.660Z,100087.03
2023-05-25T04:05:39.066Z,100125.28
2023-05-25T04:15:41.620Z,100123.81
2023-05-25T04:25:51.199Z,100114.78
2023-05-25T04:35:54.468Z,100118.13
2023-05-25T04:45:59.915Z,100114.50
2023-05-25T04:56:04.748Z,100130.44
2023-05-25T05:06:07.646Z,100125.16
2023-05-25T05:16:10.378Z,100131.16
2023-05-25T05:26:15.500Z,100145.69
2023-05-25T05:36:20.620Z,100133.75
2023-05-25T05:46:23.425Z,100174.91
2023-05-25T05:56:27.060Z,100184.59
2023-05-25T06:06:33.168Z,100180.13
2023-05-25T06:16:36.829Z,100199.56
2023-05-25T06:26:42.099Z,100186.84
2023-05-25T06:36:47.783Z,100181.72
2023-05-25T06:46:52.944Z,100172.28
2023-05-25T06:56:56.906Z,100177.31
2023-05-25T07:06:59.645Z,100169.19
2023-05-25T07:17:02.420Z,100194.22
2023-05-25T07:27:05.348Z,100189.94
2023-05-25T07:37:09.669Z,100185.72
2023-05-25T07:48:00.441Z,100190.97
2023-05-25T07:58:09.700Z,100168.91
2023-05-25T08:08:17.115Z,100190.50
2023-05-25T08:18:26.238Z,100188.78
2023-05-25T08:28:29.028Z,100208.00
2023-05-25T08:38:35.607Z,100162.78
2023-05-25T08:48:42.342Z,100194.34
2023-05-25T08:59:09.534Z,100207.75
2023-05-25T09:09:12.642Z,100160.81
2023-05-25T09:19:16.941Z,100214.38
2023-05-25T09:29:26.660Z,100205.75
2023-05-25T09:39:30.586Z,100198.59
2023-05-25T09:49:33.476Z,100201.94
2023-05-25T09:59:36.578Z,100204.59
2023-05-25T10:09:41.891Z,100197.94
2023-05-25T10:20:08.695Z,100203.03
2023-05-25T10:30:16.705Z,100172.47
2023-05-25T10:40:25.133Z,100174.28
2023-05-25T10:50:28.756Z,100162.22
2023-05-25T11:00:33.460Z,100149.66
2023-05-25T11:10:49.456Z,100167.84
2023-05-25T11:21:42.978Z,100154.75
2023-05-25T11:32:14.934Z,100149.72
2023-05-25T11:42:20.086Z,100140.88
2023-05-25T11:52:36.347Z,100117.81
2023-05-25T12:02:42.017Z,100103.59
2023-05-25T12:12:49.649Z,100103.63
2023-05-25T12:22:55.691Z,100084.22
2023-05-25T12:33:05.000Z,100074.50
2023-05-25T12:43:19.155Z,100083.53
2023-05-25T12:53:21.742Z,100075.22
2023-05-25T13:03:26.594Z,100062.00
2023-05-25T13:13:29.677Z,100052.84
2023-05-25T13:23:37.179Z,100022.72
2023-05-25T13:33:40.892Z,100046.53
2023-05-25T13:43:43.813Z,100042.81
2023-05-25T13:54:06.552Z,100019.34
2023-05-25T14:04:29.061Z,100007.47
2023-05-25T14:14:32.864Z,99999.97
2023-05-25T14:24:35.920Z,99989.09
2023-05-25T14:34:38.460Z,99981.06
2023-05-25T14:44:41.233Z,99981.38
2023-05-25T14:54:45.090Z,99980.56
2023-05-25T15:04:47.835Z,99984.84
2023-05-25T15:14:50.846Z,99964.44
2023-05-25T15:24:53.951Z,99967.47
2023-05-25T15:34:56.464Z,99961.63
2023-05-25T15:44:59.120Z,99949.50
2023-05-25T15:55:01.704Z,99977.00
2023-05-25T16:05:07.128Z,99973.41
2023-05-25T16:15:10.746Z,99962.00
2023-05-25T16:25:13.337Z,99971.19
2023-05-25T16:35:15.929Z,99970.75
2023-05-25T16:45:20.665Z,99969.78
2023-05-25T16:55:23.664Z,99968.66
2023-05-25T17:05:26.160Z,99992.69
2023-05-25T17:15:28.689Z,99985.66
2023-05-25T17:25:33.357Z,99978.66
2023-05-25T17:35:38.072Z,99984.03
2023-05-25T17:45:40.879Z,99997.84
2023-05-25T17:55:43.844Z,99988.56
2023-05-25T18:05:46.814Z,100007.41
2023-05-25T18:15:49.552Z,99996.44
2023-05-25T18:25:52.778Z,100029.13
2023-05-25T18:35:55.382Z,100043.19
2023-05-25T18:45:57.945Z,100068.81
2023-05-25T18:56:00.770Z,100080.50
2023-05-25T19:06:03.888Z,100073.06
2023-05-25T19:16:06.710Z,100068.47
2023-05-25T19:26:09.282Z,100057.59
2023-05-25T19:36:11.806Z,100072.47
2023-05-25T19:46:14.897Z,100059.41
2023-05-25T19:56:17.934Z,100075.97
2023-05-25T20:06:20.601Z,100113.28
2023-05-25T20:16:24.994Z,100107.00
2023-05-25T20:26:27.913Z,100114.66
2023-05-25T20:36:30.947Z,100114.91
2023-05-25T20:46:34.106Z,100119.75
2023-05-25T20:56:36.926Z,100107.13
2023-05-25T21:06:39.813Z,100083.91
2023-05-25T21:16:44.797Z,100121.22
2023-05-25T21:26:47.439Z,100127.84
2023-05-25T21:36:50.056Z,100128.44
2023-05-25T21:46:52.828Z,100109.09
2023-05-25T21:56:55.532Z,100137.75
2023-05-25T22:06:58.240Z,100112.38
2023-05-25T22:17:00.744Z,100139.25
2023-05-25T22:27:03.354Z,100119.16
2023-05-25T22:37:05.931Z,100103.00
2023-05-25T22:47:08.535Z,100133.19
2023-05-25T22:57:11.102Z,100118.38
2023-05-25T23:07:13.760Z,100128.94
2023-05-25T23:17:16.388Z,100091.63
2023-05-25T23:27:18.942Z,100097.00
2023-05-25T23:37:21.870Z,100070.34
2023-05-25T23:47:24.593Z,100081.78
2023-05-25T23:57:27.214Z,100093.13
